createdAt,value
2019-05-15T00:00:28.837Z,1.13
2019-05-15T00:03:19.732Z,1.00
2019-05-15T00:06:10.314Z,1.03
2019-05-15T00:09:00.233Z,1.00
2019-05-15T00:11:50.679Z,1.10
2019-05-15T00:14:40.908Z,1.53
2019-05-15T00:17:31.875Z,1.50
2019-05-15T00:20:22.464Z,0.90
2019-05-15T00:23:12.578Z,1.27
2019-05-15T00:26:02.628Z,1.27
2019-05-15T00:28:52.351Z,1.40
2019-05-15T00:31:42.367Z,1.27
2019-05-15T00:34:32.472Z,0.93
2019-05-15T00:37:22.358Z,1.53
2019-05-15T00:40:12.711Z,1.40
2019-05-15T00:43:02.117Z,1.30
2019-05-15T00:45:51.633Z,1.23
2019-05-15T00:48:41.675Z,1.33
2019-05-15T00:51:31.968Z,1.60
2019-05-15T00:54:21.752Z,1.20
2019-05-15T00:57:11.970Z,1.20
2019-05-15T01:00:01.832Z,1.30
2019-05-15T01:02:51.588Z,1.43
2019-05-15T01:05:41.833Z,1.50
2019-05-15T01:08:32.069Z,1.60
2019-05-15T01:11:22.372Z,1.23
2019-05-15T01:14:12.448Z,1.27
2019-05-15T01:17:01.878Z,1.70
2019-05-15T01:19:51.223Z,1.53
2019-05-15T01:22:40.809Z,1.43
2019-05-15T01:25:30.754Z,1.60
2019-05-15T01:28:21.929Z,1.40
2019-05-15T01:31:11.418Z,2.00
2019-05-15T01:34:01.668Z,1.40
2019-05-15T01:36:51.590Z,2.03
2019-05-15T01:39:41.494Z,1.70
2019-05-15T01:42:31.233Z,1.90
2019-05-15T01:45:21.990Z,1.67
2019-05-15T01:48:12.118Z,1.27
2019-05-15T01:51:01.928Z,1.50
2019-05-15T01:53:52.060Z,2.17
2019-05-15T01:56:42.303Z,1.53
2019-05-15T02:02:54.718Z,1.57
2019-05-15T02:05:44.192Z,2.00
2019-05-15T02:08:34.608Z,1.93
2019-05-15T02:11:24.369Z,1.67
2019-05-15T02:14:14.172Z,1.80
2019-05-15T02:17:03.838Z,1.47
2019-05-15T02:19:54.497Z,1.57
2019-05-15T02:22:44.392Z,1.90
2019-05-15T02:25:34.447Z,1.57
2019-05-15T02:28:24.688Z,1.90
2019-05-15T02:31:14.779Z,1.37
2019-05-15T02:34:04.650Z,1.83
2019-05-15T02:36:54.549Z,2.30
2019-05-15T02:39:44.817Z,2.00
2019-05-15T02:42:34.293Z,1.30
2019-05-15T02:45:23.909Z,2.00
2019-05-15T02:48:14.373Z,1.77
2019-05-15T02:51:04.513Z,1.70
2019-05-15T02:53:54.454Z,2.00
2019-05-15T02:56:43.957Z,1.67
2019-05-15T02:59:33.295Z,1.93
2019-05-15T03:02:23.734Z,1.70
2019-05-15T03:05:13.890Z,1.83
2019-05-15T03:08:04.740Z,1.93
2019-05-15T03:10:54.688Z,1.90
2019-05-15T03:13:44.556Z,1.83
2019-05-15T03:16:34.377Z,1.70
2019-05-15T03:19:24.457Z,1.90
2019-05-15T03:22:14.239Z,1.80
2019-05-15T03:25:05.341Z,1.83
2019-05-15T03:27:55.008Z,1.83
2019-05-15T03:31:12.248Z,1.80
2019-05-15T03:33:42.898Z,2.07
2019-05-15T03:36:31.823Z,2.23
2019-05-15T03:39:19.208Z,1.97
2019-05-15T03:42:09.638Z,2.07
2019-05-15T03:45:00.208Z,2.17
2019-05-15T03:47:49.894Z,2.03
2019-05-15T03:50:40.607Z,2.03
2019-05-15T03:53:30.938Z,1.97
2019-05-15T03:56:20.947Z,2.50
2019-05-15T03:59:10.769Z,1.90
2019-05-15T04:02:01.173Z,2.03
2019-05-15T04:04:50.608Z,2.03
2019-05-15T04:07:40.621Z,2.53
2019-05-15T04:10:30.875Z,2.30
2019-05-15T04:13:21.147Z,1.93
2019-05-15T04:16:10.838Z,2.00
2019-05-15T04:19:00.538Z,2.40
2019-05-15T04:21:51.444Z,2.33
2019-05-15T04:24:41.648Z,2.27
2019-05-15T04:27:32.294Z,2.10
2019-05-15T04:30:22.239Z,2.83
2019-05-15T04:33:12.388Z,2.40
2019-05-15T04:36:01.752Z,2.63
2019-05-15T04:38:51.888Z,2.90
2019-05-15T04:41:41.804Z,2.30
2019-05-15T04:44:31.974Z,2.67
2019-05-15T04:47:21.610Z,2.67
2019-05-15T04:50:12.104Z,2.37
2019-05-15T04:53:01.891Z,2.03
2019-05-15T04:55:51.778Z,2.10
2019-05-15T04:58:41.639Z,2.27
2019-05-15T05:01:31.672Z,2.50
2019-05-15T05:04:21.193Z,2.30
2019-05-15T05:07:13.094Z,2.27
2019-05-15T05:10:02.932Z,2.50
2019-05-15T05:12:52.848Z,2.43
2019-05-15T05:15:42.769Z,2.13
2019-05-15T05:18:32.692Z,2.20
2019-05-15T05:21:23.273Z,2.67
2019-05-15T05:24:12.852Z,2.07
2019-05-15T05:27:02.329Z,2.73
2019-05-15T05:29:51.999Z,2.00
2019-05-15T05:32:41.967Z,1.97
2019-05-15T05:35:32.212Z,2.80
2019-05-15T05:38:22.672Z,2.47
2019-05-15T05:41:12.244Z,1.97
2019-05-15T05:44:02.289Z,2.00
2019-05-15T05:46:52.207Z,2.13
2019-05-15T05:49:41.560Z,1.93
2019-05-15T05:52:31.567Z,2.40
2019-05-15T05:55:21.669Z,2.40
2019-05-15T05:58:11.398Z,2.47
2019-05-15T06:01:02.244Z,2.07
2019-05-15T06:03:51.968Z,2.80
2019-05-15T06:06:41.672Z,2.13
2019-05-15T06:09:31.487Z,2.30
2019-05-15T06:12:21.187Z,2.43
2019-05-15T06:15:11.008Z,2.37
2019-05-15T06:18:01.158Z,2.03
2019-05-15T06:20:50.421Z,2.87
2019-05-15T06:23:45.066Z,2.67
2019-05-15T06:26:31.861Z,2.53
2019-05-15T06:29:21.299Z,2.40
2019-05-15T06:32:11.454Z,2.47
2019-05-15T06:35:00.966Z,2.30
2019-05-15T06:37:50.678Z,2.23
2019-05-15T06:40:40.203Z,2.47
2019-05-15T06:43:29.712Z,2.13
2019-05-15T06:46:20.298Z,2.70
2019-05-15T06:49:10.017Z,2.90
2019-05-15T06:51:59.795Z,2.77
2019-05-15T06:54:49.391Z,2.50
2019-05-15T06:57:39.709Z,2.73
2019-05-15T07:00:29.808Z,3.27
2019-05-15T07:03:25.574Z,3.27
2019-05-15T07:06:10.527Z,2.60
2019-05-15T07:09:00.212Z,2.63
2019-05-15T07:11:51.415Z,2.77
2019-05-15T07:14:40.868Z,3.47
2019-05-15T07:17:30.627Z,2.87
2019-05-15T07:20:21.175Z,3.00
2019-05-15T07:23:11.135Z,2.80
2019-05-15T07:26:00.633Z,3.77
2019-05-15T07:28:50.509Z,3.20
2019-05-15T07:31:40.548Z,3.60
2019-05-15T07:34:31.507Z,2.93
2019-05-15T07:37:21.968Z,3.80
2019-05-15T07:40:12.431Z,3.43
2019-05-15T07:43:02.449Z,2.97
2019-05-15T07:45:54.619Z,3.50
2019-05-15T07:48:44.293Z,3.10
2019-05-15T07:51:33.818Z,3.33
2019-05-15T07:54:23.293Z,3.17
2019-05-15T07:57:13.149Z,3.93
2019-05-15T08:00:02.893Z,3.37
2019-05-15T08:02:52.461Z,3.30
2019-05-15T08:05:55.171Z,3.17
2019-05-15T08:08:33.329Z,3.50
2019-05-15T08:11:24.827Z,4.00
2019-05-15T08:14:14.738Z,3.50
2019-05-15T08:17:04.050Z,3.27
2019-05-15T08:19:53.648Z,4.17
2019-05-15T08:22:45.903Z,3.80
2019-05-15T08:25:35.851Z,3.07
2019-05-15T08:28:25.538Z,3.47
2019-05-15T08:31:14.943Z,3.00
2019-05-15T08:34:13.601Z,3.07
2019-05-15T08:36:58.377Z,3.93
2019-05-15T08:39:48.738Z,3.17
2019-05-15T08:42:41.993Z,3.20
2019-05-15T08:45:31.676Z,3.27
2019-05-15T08:48:21.618Z,3.00
2019-05-15T08:51:11.448Z,2.80
2019-05-15T08:54:01.033Z,3.37
2019-05-15T08:56:51.574Z,3.30
2019-05-15T08:59:41.082Z,3.03
2019-05-15T09:02:30.957Z,2.70
2019-05-15T09:05:21.661Z,2.83
2019-05-15T09:08:12.038Z,2.40
2019-05-15T09:11:01.778Z,2.77
2019-05-15T09:13:53.731Z,2.63
2019-05-15T09:16:42.442Z,2.70
2019-05-15T09:19:32.113Z,2.87
2019-05-15T09:22:21.651Z,3.43
2019-05-15T09:25:11.699Z,3.20
2019-05-15T09:28:01.211Z,2.63
2019-05-15T09:30:51.045Z,2.40
2019-05-15T09:33:40.778Z,2.27
2019-05-15T09:36:30.823Z,2.43
2019-05-15T09:39:21.328Z,2.60
2019-05-15T09:42:11.387Z,2.47
2019-05-15T09:45:02.453Z,2.50
2019-05-15T09:47:52.368Z,3.10
2019-05-15T09:50:41.948Z,2.80
2019-05-15T09:53:31.706Z,2.40
2019-05-15T09:56:21.233Z,2.27
2019-05-15T09:59:10.774Z,1.80
2019-05-15T10:02:00.205Z,2.20
2019-05-15T10:05:05.470Z,2.67
2019-05-15T10:07:43.113Z,2.17
2019-05-15T10:10:32.760Z,1.83
2019-05-15T10:13:22.473Z,2.10
2019-05-15T10:16:12.090Z,2.33
2019-05-15T10:19:02.131Z,1.67
2019-05-15T10:21:53.273Z,2.70
2019-05-15T10:24:43.373Z,2.10
2019-05-15T10:27:32.859Z,2.50
2019-05-15T10:30:22.373Z,2.10
2019-05-15T10:33:12.060Z,2.00
2019-05-15T10:36:01.593Z,1.90
2019-05-15T10:38:51.156Z,2.50
2019-05-15T10:41:40.659Z,1.80
2019-05-15T10:44:31.122Z,2.23
2019-05-15T10:47:20.861Z,1.90
2019-05-15T10:50:11.168Z,1.77
2019-05-15T10:53:01.428Z,2.27
2019-05-15T10:55:50.893Z,1.50
2019-05-15T10:58:41.011Z,1.97
2019-05-15T11:01:31.359Z,1.60
2019-05-15T11:04:21.543Z,1.70
2019-05-15T11:07:11.502Z,1.30
2019-05-15T11:10:01.418Z,1.63
2019-05-15T11:12:50.928Z,1.40
2019-05-15T11:15:42.611Z,1.43
2019-05-15T11:18:32.149Z,1.10
2019-05-15T11:21:21.899Z,1.23
2019-05-15T11:24:11.573Z,1.13
2019-05-15T11:27:01.177Z,1.40
2019-05-15T11:29:51.208Z,1.00
2019-05-15T11:32:40.729Z,1.47
2019-05-15T11:35:29.979Z,1.27
2019-05-15T11:38:19.727Z,1.83
2019-05-15T11:41:09.487Z,1.27
2019-05-15T11:43:59.131Z,1.10
2019-05-15T11:46:49.607Z,1.50
2019-05-15T11:49:39.473Z,1.87
2019-05-15T11:52:29.556Z,1.33
2019-05-15T11:55:19.617Z,1.57
2019-05-15T11:58:09.498Z,1.57
2019-05-15T12:01:00.182Z,1.43
2019-05-15T12:03:50.232Z,1.70
2019-05-15T12:06:39.619Z,1.53
2019-05-15T12:09:29.548Z,1.53
2019-05-15T12:12:18.939Z,1.50
2019-05-15T12:15:09.944Z,1.20
2019-05-15T12:17:59.737Z,1.53
2019-05-15T12:20:49.761Z,1.23
2019-05-15T12:23:40.423Z,1.43
2019-05-15T12:26:29.945Z,1.47
2019-05-15T12:29:19.492Z,1.40
2019-05-15T12:32:23.566Z,1.40
2019-05-15T12:35:00.269Z,1.07
2019-05-15T12:37:49.653Z,1.10
2019-05-15T13:00:38.340Z,1.33
2019-05-15T13:03:29.009Z,1.30
2019-05-15T13:06:19.218Z,1.73
2019-05-15T13:09:09.003Z,1.20
2019-05-15T13:11:58.843Z,1.20
2019-05-15T13:14:49.019Z,1.20
2019-05-15T13:17:39.083Z,1.20
2019-05-15T13:20:29.498Z,1.10
2019-05-15T13:23:20.090Z,1.43
2019-05-15T13:26:22.982Z,1.23
2019-05-15T13:29:00.902Z,1.40
2019-05-15T13:31:50.368Z,1.80
2019-05-15T13:34:40.054Z,1.40
2019-05-15T13:37:30.865Z,1.13
2019-05-15T13:40:34.115Z,1.50
2019-05-15T13:43:11.968Z,1.30
2019-05-15T13:46:01.954Z,1.10
2019-05-15T13:48:51.910Z,1.30
2019-05-15T13:51:41.716Z,1.40
2019-05-15T13:54:31.299Z,1.10
2019-05-15T13:57:22.377Z,1.53
2019-05-15T14:00:12.998Z,1.20
2019-05-15T14:03:02.766Z,1.33
2019-05-15T14:05:52.150Z,1.20
2019-05-15T14:08:42.412Z,1.30
2019-05-15T14:11:32.272Z,1.10
2019-05-15T14:14:21.795Z,1.17
2019-05-15T14:17:11.148Z,1.27
2019-05-15T14:20:00.748Z,1.27
2019-05-15T14:22:51.763Z,1.20
2019-05-15T14:25:41.142Z,1.00
2019-05-15T14:28:30.812Z,1.20
2019-05-15T14:31:20.273Z,1.60
2019-05-15T14:34:09.799Z,1.17
2019-05-15T14:36:59.314Z,1.10
2019-05-15T14:39:52.401Z,1.40
2019-05-15T14:42:41.562Z,1.07
2019-05-15T14:45:31.343Z,1.13
2019-05-15T14:48:21.384Z,1.70
2019-05-15T14:51:10.930Z,1.30
2019-05-15T14:54:00.920Z,1.90
2019-05-15T14:56:51.023Z,1.60
2019-05-15T14:59:41.492Z,1.70
2019-05-15T15:02:32.053Z,1.83
2019-05-15T15:05:23.170Z,2.17
2019-05-15T15:08:23.620Z,1.53
2019-05-15T15:11:05.083Z,1.13
2019-05-15T15:13:54.607Z,1.37
2019-05-15T15:16:44.551Z,1.10
2019-05-15T15:19:34.777Z,1.60
2019-05-15T15:22:24.517Z,1.40
2019-05-15T15:25:14.474Z,1.47
2019-05-15T15:28:04.387Z,1.90
2019-05-15T15:30:54.770Z,1.70
2019-05-15T15:33:44.571Z,2.27
2019-05-15T15:36:34.748Z,1.73
2019-05-15T15:39:24.325Z,1.80
2019-05-15T15:42:14.775Z,1.77
2019-05-15T15:45:05.418Z,1.53
2019-05-15T15:47:55.379Z,2.63
2019-05-15T15:50:45.173Z,1.80
2019-05-15T15:53:34.418Z,1.50
2019-05-15T15:56:24.865Z,1.27
2019-05-15T15:59:14.538Z,1.70
2019-05-15T16:02:04.304Z,2.53
2019-05-15T16:04:54.447Z,1.60
2019-05-15T16:07:44.438Z,1.60
2019-05-15T16:10:34.387Z,1.30
2019-05-15T16:13:24.318Z,1.40
2019-05-15T16:16:17.816Z,1.63
2019-05-15T16:19:18.943Z,1.70
2019-05-15T16:22:08.913Z,1.80
2019-05-15T16:25:02.341Z,1.37
2019-05-15T16:27:51.087Z,1.43
2019-05-15T16:30:50.959Z,1.13
2019-05-15T16:33:33.664Z,1.60
2019-05-15T16:36:23.288Z,1.37
2019-05-15T16:39:12.899Z,1.33
2019-05-15T16:42:02.930Z,4.33
2019-05-15T16:44:53.300Z,2.37
2019-05-15T16:47:42.998Z,1.20
2019-05-15T16:50:33.516Z,0.90
2019-05-15T16:53:23.248Z,1.30
2019-05-15T16:56:15.012Z,1.07
2019-05-15T16:59:07.385Z,0.90
2019-05-15T17:01:57.015Z,0.90
2019-05-15T17:04:48.854Z,0.80
2019-05-15T17:07:39.133Z,1.30
2019-05-15T17:10:29.364Z,1.20
2019-05-15T17:13:19.300Z,0.80
2019-05-15T17:16:08.893Z,0.70
2019-05-15T17:18:59.747Z,0.53
2019-05-15T17:21:49.535Z,0.83
2019-05-15T17:24:39.413Z,0.57
2019-05-15T17:27:29.217Z,0.80
2019-05-15T17:30:19.994Z,0.90
2019-05-15T17:33:10.554Z,0.97
2019-05-15T17:36:00.428Z,0.40
2019-05-15T17:38:51.002Z,0.70
2019-05-15T17:41:40.819Z,0.87
2019-05-15T17:44:32.378Z,0.90
2019-05-15T17:47:22.247Z,1.20
2019-05-15T17:50:13.222Z,0.97
2019-05-15T17:53:04.182Z,1.03
2019-05-15T17:55:55.433Z,0.90
2019-05-15T17:58:45.442Z,0.63
2019-05-15T18:01:38.524Z,0.70
2019-05-15T18:04:28.356Z,0.70
2019-05-15T18:07:18.562Z,0.90
2019-05-15T18:10:09.069Z,1.00
2019-05-15T18:12:59.568Z,0.87
2019-05-15T18:15:49.272Z,0.80
2019-05-15T18:18:39.871Z,0.90
2019-05-15T18:21:30.386Z,1.00
2019-05-15T18:24:20.982Z,1.07
2019-05-15T18:27:10.829Z,0.43
2019-05-15T18:30:00.820Z,0.87
2019-05-15T18:32:51.287Z,1.00
2019-05-15T18:35:43.449Z,0.83
2019-05-15T18:38:33.580Z,0.80
2019-05-15T18:41:23.983Z,0.70
2019-05-15T18:44:13.870Z,0.83
2019-05-15T18:47:03.943Z,0.93
2019-05-15T18:50:05.284Z,0.40
2019-05-15T18:52:48.645Z,0.80
2019-05-15T18:55:38.576Z,0.77
2019-05-15T18:58:30.597Z,0.77
2019-05-15T19:01:21.223Z,0.87
2019-05-15T19:04:12.225Z,0.40
2019-05-15T19:07:02.004Z,0.50
2019-05-15T19:09:51.817Z,0.50
2019-05-15T19:12:42.019Z,0.50
2019-05-15T19:15:32.697Z,0.63
2019-05-15T19:18:22.818Z,0.90
2019-05-15T19:21:16.116Z,0.50
2019-05-15T19:24:11.278Z,0.30
2019-05-15T19:27:03.663Z,0.47
2019-05-15T19:29:55.376Z,0.93
2019-05-15T19:32:45.553Z,0.67
2019-05-15T19:35:38.714Z,1.10
2019-05-15T19:38:29.518Z,0.60
2019-05-15T19:41:20.401Z,0.77
2019-05-15T19:44:12.412Z,0.80
2019-05-15T19:47:04.007Z,0.73
2019-05-15T19:49:55.101Z,0.63
2019-05-15T19:52:44.907Z,0.57
2019-05-15T19:55:37.790Z,0.77
2019-05-15T19:58:28.723Z,0.60
2019-05-15T20:01:19.249Z,0.40
2019-05-15T20:04:09.657Z,0.83
2019-05-15T20:06:59.907Z,0.40
2019-05-15T20:09:50.629Z,0.60
2019-05-15T20:12:42.902Z,0.50
2019-05-15T20:15:32.748Z,0.70
2019-05-15T20:18:23.392Z,0.43
2019-05-15T20:21:13.515Z,0.50
2019-05-15T20:24:03.582Z,0.80
2019-05-15T20:26:54.152Z,0.50
2019-05-15T20:29:44.410Z,0.70
2019-05-15T20:32:34.125Z,1.27
2019-05-15T20:35:23.584Z,0.70
2019-05-15T20:38:14.450Z,0.73
2019-05-15T20:41:04.728Z,0.33
2019-05-15T20:43:54.552Z,0.90
2019-05-15T20:46:44.242Z,0.73
2019-05-15T20:49:35.093Z,0.70
2019-05-15T20:52:25.298Z,0.80
2019-05-15T20:55:15.873Z,0.40
2019-05-15T20:58:08.025Z,0.60
2019-05-15T21:00:59.112Z,0.57
2019-05-15T21:03:51.056Z,0.60
2019-05-15T21:06:42.288Z,0.80
2019-05-15T21:09:32.852Z,0.50
2019-05-15T21:12:26.247Z,0.60
2019-05-15T21:15:14.938Z,0.57
2019-05-15T21:18:13.600Z,0.57
2019-05-15T21:20:56.377Z,0.80
2019-05-15T21:23:49.013Z,0.60
2019-05-15T21:26:38.552Z,0.37
2019-05-15T21:29:30.128Z,0.67
2019-05-15T21:32:20.319Z,0.30
2019-05-15T21:35:11.833Z,0.30
2019-05-15T21:38:01.506Z,0.33
2019-05-15T21:40:51.627Z,0.10
2019-05-15T21:43:41.508Z,0.50
2019-05-15T21:46:31.472Z,0.40
2019-05-15T21:49:21.328Z,0.10
2019-05-15T21:52:11.893Z,0.20
2019-05-15T21:55:02.304Z,0.37
2019-05-15T21:57:53.587Z,0.40
2019-05-15T22:00:48.478Z,0.30
2019-05-15T22:03:38.986Z,0.30
2019-05-15T22:06:39.731Z,0.20
2019-05-15T22:09:29.655Z,0.30
2019-05-15T22:12:19.677Z,0.30
2019-05-15T22:15:09.501Z,0.30
2019-05-15T22:18:00.154Z,0.27
2019-05-15T22:20:50.200Z,0.37
2019-05-15T22:23:40.523Z,0.30
2019-05-15T22:26:30.047Z,0.40
2019-05-15T22:29:20.847Z,0.40
2019-05-15T22:32:10.712Z,0.20
2019-05-15T22:35:09.723Z,0.50
2019-05-15T22:37:53.023Z,0.40
2019-05-15T22:40:43.248Z,0.50
2019-05-15T22:43:33.015Z,0.30
2019-05-15T22:46:23.093Z,0.50
2019-05-15T22:49:14.529Z,0.27
2019-05-15T22:52:04.387Z,0.23
2019-05-15T22:54:54.167Z,0.40
2019-05-15T22:57:47.822Z,0.13
2019-05-15T23:00:36.234Z,0.37
2019-05-15T23:03:28.079Z,0.30
2019-05-15T23:06:18.633Z,0.10
2019-05-15T23:09:08.648Z,0.10
2019-05-15T23:11:59.097Z,0.20
2019-05-15T23:14:50.712Z,0.30
2019-05-15T23:17:40.528Z,0.20
2019-05-15T23:20:30.674Z,0.33
2019-05-15T23:23:20.232Z,0.30
2019-05-15T23:26:09.963Z,0.47
2019-05-15T23:28:59.597Z,0.20
2019-05-15T23:31:49.177Z,0.33
2019-05-15T23:34:38.813Z,0.20
2019-05-15T23:37:28.687Z,0.20
2019-05-15T23:40:18.935Z,0.23
2019-05-15T23:43:08.956Z,0.00
2019-05-15T23:45:59.094Z,0.23
2019-05-15T23:48:50.036Z,0.13
2019-05-15T23:51:40.037Z,0.30
2019-05-15T23:54:30.838Z,0.37
2019-05-15T23:57:20.367Z,0.10
